createdAt,value
2022-11-01T00:02:24.290Z,10.13
2022-11-01T00:04:52.805Z,8.40
2022-11-01T00:07:20.915Z,13.15
2022-11-01T00:09:48.967Z,11.02
2022-11-01T00:12:17.168Z,9.23
2022-11-01T00:14:45.258Z,11.63
2022-11-01T00:17:13.367Z,10.38
2022-11-01T00:19:41.415Z,12.82
2022-11-01T00:22:09.530Z,8.65
2022-11-01T00:24:37.581Z,9.32
2022-11-01T00:27:05.689Z,10.35
2022-11-01T00:29:33.773Z,11.27
2022-11-01T00:32:01.951Z,13.27
2022-11-01T00:34:30.042Z,9.63
2022-11-01T00:36:58.137Z,10.05
2022-11-01T00:39:30.545Z,9.25
2022-11-01T00:41:59.592Z,7.45
2022-11-01T00:44:27.642Z,11.07
2022-11-01T00:46:55.749Z,10.48
2022-11-01T00:49:23.830Z,14.65
2022-11-01T00:51:52.396Z,13.00
2022-11-01T00:54:20.451Z,10.27
2022-11-01T00:56:48.557Z,9.63
2022-11-01T00:59:16.615Z,12.50
2022-11-01T01:01:44.815Z,9.40
2022-11-01T01:04:13.020Z,12.70
2022-11-01T01:06:41.226Z,10.93
2022-11-01T01:09:11.248Z,10.07
2022-11-01T01:11:39.460Z,13.73
2022-11-01T01:14:07.510Z,9.73
2022-11-01T01:16:35.769Z,7.72
2022-11-01T01:19:04.517Z,7.35
2022-11-01T01:21:32.627Z,11.88
2022-11-01T01:24:01.040Z,7.45
2022-11-01T01:26:29.150Z,9.25
2022-11-01T01:28:57.325Z,8.13
2022-11-01T01:31:25.527Z,8.05
2022-11-01T01:33:53.608Z,8.27
2022-11-01T01:36:21.811Z,6.28
2022-11-01T01:38:53.286Z,7.80
2022-11-01T01:41:40.441Z,8.82
2022-11-01T01:44:51.821Z,9.55
2022-11-01T01:47:28.935Z,16.20
2022-11-01T01:50:29.888Z,6.00
2022-11-01T01:53:19.669Z,9.60
2022-11-01T01:56:18.591Z,7.80
2022-11-01T01:59:01.577Z,7.25
2022-11-01T02:01:30.342Z,8.10
2022-11-01T02:04:03.240Z,6.28
2022-11-01T02:06:33.632Z,8.40
2022-11-01T02:09:05.525Z,8.55
2022-11-01T02:11:34.233Z,8.10
2022-11-01T02:14:02.915Z,6.75
2022-11-01T02:17:08.561Z,8.75
2022-11-01T02:20:04.696Z,8.88
2022-11-01T02:22:46.943Z,7.80
2022-11-01T02:25:20.660Z,10.57
2022-11-01T02:30:55.847Z,7.13
2022-11-01T02:33:48.534Z,5.80
2022-11-01T02:36:47.819Z,7.93
2022-11-01T02:39:29.315Z,6.60
2022-11-01T02:42:21.757Z,9.38
2022-11-01T02:45:00.160Z,7.47
2022-11-01T02:47:31.024Z,8.23
2022-11-01T02:50:07.965Z,9.05
2022-11-01T02:52:40.636Z,13.93
2022-11-01T02:55:34.250Z,8.93
2022-11-01T02:58:32.116Z,7.45
2022-11-01T03:01:00.243Z,8.55
2022-11-01T03:03:36.081Z,8.70
2022-11-01T03:06:12.329Z,6.35
2022-11-01T03:08:55.266Z,10.32
2022-11-01T03:11:55.267Z,5.85
2022-11-01T03:14:32.708Z,6.53
2022-11-01T03:17:12.216Z,7.57
2022-11-01T03:20:11.354Z,5.95
2022-11-01T03:22:48.461Z,7.43
2022-11-01T03:25:35.604Z,9.18
2022-11-01T03:28:29.269Z,8.88
2022-11-01T03:31:09.953Z,8.13
2022-11-01T03:33:46.550Z,7.35
2022-11-01T03:36:20.012Z,7.05
2022-11-01T03:39:03.601Z,10.57
2022-11-01T03:41:42.963Z,8.48
2022-11-01T03:44:13.897Z,8.25
2022-11-01T03:46:43.205Z,8.70
2022-11-01T03:49:28.063Z,5.93
2022-11-01T03:51:56.294Z,9.52
2022-11-01T03:54:24.493Z,6.93
2022-11-01T03:56:53.030Z,7.03
2022-11-01T03:59:21.112Z,9.07
2022-11-01T04:01:50.075Z,8.50
2022-11-01T04:04:18.239Z,7.97
2022-11-01T04:06:46.346Z,10.02
2022-11-01T04:09:14.403Z,5.70
2022-11-01T04:11:43.709Z,8.45
2022-11-01T04:14:30.278Z,8.02
2022-11-01T04:17:16.836Z,8.90
2022-11-01T04:20:03.132Z,5.90
2022-11-01T04:22:31.238Z,9.57
2022-11-01T04:24:59.324Z,7.57
2022-11-01T04:27:27.404Z,7.00
2022-11-01T04:29:55.463Z,6.65
2022-11-01T04:32:23.569Z,8.93
2022-11-01T04:34:51.655Z,7.50
2022-11-01T04:37:19.736Z,8.10
2022-11-01T04:39:47.793Z,7.45
2022-11-01T04:42:15.994Z,7.68
2022-11-01T04:44:46.864Z,7.43
2022-11-01T04:47:14.941Z,13.27
2022-11-01T04:49:43.004Z,8.05
2022-11-01T04:52:11.132Z,12.02
2022-11-01T04:54:39.168Z,12.27
2022-11-01T04:57:07.277Z,8.38
2022-11-01T04:59:35.236Z,10.48
2022-11-01T05:02:03.370Z,7.90
2022-11-01T05:04:31.497Z,12.10
2022-11-01T05:06:59.699Z,10.45
2022-11-01T05:09:27.782Z,10.98
2022-11-01T05:11:55.983Z,18.83
2022-11-01T05:14:24.666Z,7.88
2022-11-01T05:16:56.857Z,10.82
2022-11-01T05:19:25.057Z,11.77
2022-11-01T05:21:53.499Z,7.85
2022-11-01T05:24:21.466Z,8.05
2022-11-01T05:26:50.861Z,7.93
2022-11-01T05:29:24.759Z,4.95
2022-11-01T05:31:59.511Z,6.47
2022-11-01T05:34:27.687Z,6.38
2022-11-01T05:36:55.792Z,11.32
2022-11-01T05:39:23.850Z,7.20
2022-11-01T05:41:51.957Z,6.03
2022-11-01T05:44:19.927Z,8.48
2022-11-01T05:46:48.367Z,6.40
2022-11-01T05:49:16.421Z,7.95
2022-11-01T05:51:44.531Z,6.55
2022-11-01T05:54:12.593Z,5.50
2022-11-01T05:56:40.698Z,6.90
2022-11-01T05:59:08.751Z,3.80
2022-11-01T06:01:36.921Z,7.30
2022-11-01T06:04:05.395Z,5.45
2022-11-01T06:06:33.860Z,5.38
2022-11-01T06:09:03.120Z,3.40
2022-11-01T06:11:31.226Z,3.35
2022-11-01T06:13:59.792Z,3.30
2022-11-01T06:16:28.237Z,2.75
2022-11-01T06:18:56.289Z,3.08
2022-11-01T06:21:27.623Z,3.83
2022-11-01T06:26:25.939Z,3.58
2022-11-01T06:28:54.142Z,4.65
2022-11-01T06:31:22.248Z,2.17
2022-11-01T06:33:50.697Z,2.80
2022-11-01T06:36:18.746Z,1.60
2022-11-01T06:38:46.856Z,2.63
2022-11-01T06:41:15.300Z,3.55
2022-11-01T06:43:44.582Z,1.73
2022-11-01T06:46:12.637Z,1.58
2022-11-01T06:48:40.748Z,1.30
2022-11-01T06:51:08.825Z,4.53
2022-11-01T06:53:37.008Z,3.08
2022-11-01T06:56:18.575Z,1.63
2022-11-01T06:58:50.474Z,1.70
2022-11-01T07:01:22.743Z,2.72
2022-11-01T07:03:52.279Z,1.90
2022-11-01T07:06:20.725Z,1.40
2022-11-01T07:08:48.804Z,1.38
2022-11-01T07:11:16.861Z,1.13
2022-11-01T07:13:45.303Z,2.75
2022-11-01T07:16:13.269Z,2.08
2022-11-01T07:18:43.052Z,1.27
2022-11-01T07:21:11.599Z,2.55
2022-11-01T07:23:39.829Z,1.80
2022-11-01T07:26:07.901Z,1.20
2022-11-01T07:28:36.203Z,2.42
2022-11-01T07:31:04.427Z,1.83
2022-11-01T07:33:33.110Z,2.83
2022-11-01T07:36:02.733Z,2.13
2022-11-01T07:38:31.326Z,2.30
2022-11-01T07:40:59.610Z,1.13
2022-11-01T07:43:27.723Z,1.35
2022-11-01T07:46:00.939Z,1.85
2022-11-01T07:48:29.159Z,2.15
2022-11-01T07:50:57.699Z,1.00
2022-11-01T07:53:26.170Z,1.35
2022-11-01T07:55:54.228Z,1.85
2022-11-01T07:58:22.333Z,2.53
2022-11-01T08:00:51.820Z,2.60
2022-11-01T08:03:20.631Z,0.80
2022-11-01T08:05:49.083Z,0.85
2022-11-01T08:08:18.029Z,1.60
2022-11-01T08:10:46.838Z,2.45
2022-11-01T08:13:18.752Z,0.80
2022-11-01T08:15:48.485Z,1.25
2022-11-01T08:18:21.607Z,1.90
2022-11-01T08:20:50.770Z,1.67
2022-11-01T08:23:18.997Z,1.55
2022-11-01T08:25:47.323Z,1.50
2022-11-01T08:28:18.763Z,1.38
2022-11-01T08:30:49.580Z,1.27
2022-11-01T08:33:18.065Z,1.25
2022-11-01T08:35:50.396Z,1.33
2022-11-01T08:38:19.621Z,2.45
2022-11-01T08:40:48.414Z,2.83
2022-11-01T08:43:17.096Z,3.33
2022-11-01T08:45:45.423Z,3.15
2022-11-01T08:48:14.196Z,2.80
2022-11-01T08:50:42.279Z,1.50
2022-11-01T08:53:14.588Z,6.63
2022-11-01T08:55:42.862Z,2.70
2022-11-01T08:58:11.720Z,4.75
2022-11-01T09:00:39.794Z,2.00
2022-11-01T09:03:08.739Z,4.13
2022-11-01T09:05:37.137Z,2.60
2022-11-01T09:08:05.800Z,5.65
2022-11-01T09:10:34.288Z,4.50
2022-11-01T09:13:02.718Z,6.95
2022-11-01T09:15:31.382Z,1.40
2022-11-01T09:17:59.586Z,2.35
2022-11-01T09:20:28.483Z,2.03
2022-11-01T09:22:57.337Z,1.55
2022-11-01T09:25:25.530Z,3.63
2022-11-01T09:27:58.041Z,2.05
2022-11-01T09:30:26.957Z,3.00
2022-11-01T09:32:55.070Z,2.08
2022-11-01T09:35:23.870Z,5.03
2022-11-01T09:37:59.366Z,1.65
2022-11-01T09:40:36.224Z,2.83
2022-11-01T09:43:09.790Z,3.70
2022-11-01T09:48:07.558Z,2.70
2022-11-01T09:50:38.141Z,2.53
2022-11-01T09:53:17.887Z,2.63
2022-11-01T09:56:22.781Z,2.10
2022-11-01T09:59:05.176Z,2.47
2022-11-01T10:02:09.988Z,5.10
2022-11-01T10:05:25.579Z,4.20
2022-11-01T10:08:15.480Z,9.10
2022-11-01T10:11:05.901Z,2.60
2022-11-01T10:14:04.825Z,3.13
2022-11-01T10:16:43.345Z,3.58
2022-11-01T10:19:23.908Z,2.88
2022-11-01T10:22:01.182Z,2.88
2022-11-01T10:24:40.837Z,3.35
2022-11-01T10:27:43.008Z,4.68
2022-11-01T10:30:18.256Z,2.40
2022-11-01T10:32:52.721Z,1.92
2022-11-01T10:35:30.763Z,3.10
2022-11-01T10:39:04.601Z,4.65
2022-11-01T10:41:43.497Z,2.30
2022-11-01T10:44:28.715Z,3.35
2022-11-01T10:46:59.823Z,3.92
2022-11-01T10:50:00.525Z,2.97
2022-11-01T10:52:48.662Z,4.50
2022-11-01T10:55:39.440Z,3.30
2022-11-01T10:58:33.883Z,4.38
2022-11-01T11:01:05.681Z,4.72
2022-11-01T11:03:34.394Z,3.25
2022-11-01T11:06:08.811Z,2.70
2022-11-01T11:08:41.955Z,3.33
2022-11-01T11:11:16.616Z,4.10
2022-11-01T11:13:53.860Z,4.55
2022-11-01T11:16:48.924Z,3.05
2022-11-01T11:19:39.103Z,2.15
2022-11-01T11:22:09.906Z,3.15
2022-11-01T11:24:41.349Z,2.40
2022-11-01T11:27:30.933Z,3.60
2022-11-01T11:30:05.606Z,2.53
2022-11-01T11:32:40.664Z,3.50
2022-11-01T11:35:14.365Z,2.25
2022-11-01T11:38:02.750Z,2.70
2022-11-01T11:40:51.234Z,4.90
2022-11-01T11:43:34.333Z,2.63
2022-11-01T11:46:21.729Z,3.60
2022-11-01T11:49:01.366Z,6.07
2022-11-01T11:51:33.334Z,4.35
2022-11-01T11:54:28.902Z,6.40
2022-11-01T11:57:18.102Z,1.90
2022-11-01T11:59:54.704Z,3.85
2022-11-01T12:02:36.426Z,2.22
2022-11-01T12:05:18.228Z,4.00
2022-11-01T12:07:49.551Z,5.05
2022-11-01T12:10:46.434Z,3.75
2022-11-01T12:13:37.230Z,4.57
2022-11-01T12:16:21.580Z,4.10
2022-11-01T12:19:03.962Z,4.07
2022-11-01T12:21:41.764Z,8.27
2022-11-01T12:24:27.042Z,4.78
2022-11-01T12:27:04.961Z,5.20
2022-11-01T12:30:00.998Z,5.25
2022-11-01T12:32:58.456Z,5.30
2022-11-01T12:35:46.580Z,6.05
2022-11-01T12:38:43.845Z,5.63
2022-11-01T12:41:17.666Z,4.50
2022-11-01T12:44:06.168Z,4.45
2022-11-01T12:46:46.269Z,4.43
2022-11-01T12:49:35.594Z,4.38
2022-11-01T12:52:16.478Z,3.60
2022-11-01T12:55:05.567Z,4.65
2022-11-01T12:57:34.993Z,4.28
2022-11-01T13:00:05.327Z,3.10
2022-11-01T13:03:24.313Z,2.80
2022-11-01T13:06:19.490Z,3.05
2022-11-01T13:09:02.351Z,4.30
2022-11-01T13:11:50.694Z,2.85
2022-11-01T13:14:58.385Z,4.88
2022-11-01T13:17:54.087Z,3.80
2022-11-01T13:20:41.107Z,5.03
2022-11-01T13:23:38.106Z,6.38
2022-11-01T13:26:35.347Z,3.28
2022-11-01T13:29:46.380Z,6.78
2022-11-01T13:33:04.030Z,3.28
2022-11-01T13:35:44.478Z,5.50
2022-11-01T13:38:36.828Z,3.60
2022-11-01T13:41:22.425Z,4.15
2022-11-01T13:44:05.366Z,4.10
2022-11-01T13:47:03.960Z,2.97
2022-11-01T13:49:55.551Z,7.38
2022-11-01T13:52:30.002Z,4.00
2022-11-01T13:55:32.500Z,4.45
2022-11-01T13:58:01.235Z,1.98
2022-11-01T14:00:52.027Z,4.13
2022-11-01T14:03:25.823Z,2.70
2022-11-01T14:06:12.110Z,3.38
2022-11-01T14:08:48.503Z,3.05
2022-11-01T14:11:49.938Z,2.35
2022-11-01T14:14:30.267Z,4.95
2022-11-01T14:17:16.704Z,3.05
2022-11-01T14:19:50.162Z,4.40
2022-11-01T14:22:25.229Z,3.28
2022-11-01T14:25:11.853Z,4.60
2022-11-01T14:27:50.494Z,5.57
2022-11-01T14:30:24.528Z,3.30
2022-11-01T14:33:03.046Z,5.38
2022-11-01T14:35:38.177Z,5.30
2022-11-01T14:38:18.740Z,3.40
2022-11-01T14:40:59.089Z,4.65
2022-11-01T14:43:36.172Z,3.92
2022-11-01T14:46:18.660Z,4.72
2022-11-01T14:49:19.351Z,4.57
2022-11-01T14:52:04.595Z,5.70
2022-11-01T14:54:39.901Z,3.28
2022-11-01T14:57:31.025Z,3.03
2022-11-01T15:00:18.045Z,5.88
2022-11-01T15:02:46.231Z,4.28
2022-11-01T15:05:16.968Z,4.82
2022-11-01T15:07:51.917Z,4.45
2022-11-01T15:10:20.244Z,6.38
2022-11-01T15:12:54.294Z,5.55
2022-11-01T15:15:33.420Z,5.78
2022-11-01T15:18:05.898Z,5.53
2022-11-01T15:20:48.542Z,4.25
2022-11-01T15:23:36.908Z,3.45
2022-11-01T15:26:13.153Z,3.80
2022-11-01T15:29:12.702Z,3.80
2022-11-01T15:31:50.621Z,8.18
2022-11-01T15:34:29.504Z,2.95
2022-11-01T15:37:00.081Z,5.60
2022-11-01T15:39:29.524Z,6.35
2022-11-01T15:41:58.069Z,3.95
2022-11-01T15:44:30.715Z,4.88
2022-11-01T15:47:02.010Z,3.92
2022-11-01T15:49:55.770Z,4.00
2022-11-01T15:52:31.798Z,3.85
2022-11-01T15:55:17.400Z,5.15
2022-11-01T15:58:08.977Z,13.15
2022-11-01T16:00:45.480Z,13.98
2022-11-01T16:03:41.421Z,5.93
2022-11-01T16:06:23.146Z,5.68
2022-11-01T16:08:56.163Z,6.97
2022-11-01T16:11:28.679Z,8.48
2022-11-01T16:14:25.080Z,8.17
2022-11-01T16:16:59.771Z,14.70
2022-11-01T16:19:38.999Z,9.93
2022-11-01T16:22:47.308Z,5.85
2022-11-01T16:25:24.131Z,3.22
2022-11-01T16:28:07.280Z,6.43
2022-11-01T16:30:52.815Z,8.15
2022-11-01T16:33:26.414Z,5.95
2022-11-01T16:36:33.523Z,5.93
2022-11-01T16:39:02.059Z,7.78
2022-11-01T16:41:39.615Z,10.10
2022-11-01T16:44:16.601Z,7.40
2022-11-01T16:46:44.905Z,5.38
2022-11-01T16:49:21.788Z,3.67
2022-11-01T16:51:51.750Z,7.30
2022-11-01T16:54:19.982Z,5.82
2022-11-01T16:56:54.878Z,5.05
2022-11-01T16:59:42.638Z,7.57
2022-11-01T17:02:30.263Z,4.85
2022-11-01T17:05:24.166Z,8.75
2022-11-01T17:07:52.274Z,7.43
2022-11-01T17:10:25.971Z,6.75
2022-11-01T17:15:29.243Z,3.90
2022-11-01T17:17:59.478Z,8.55
2022-11-01T17:20:28.765Z,8.65
2022-11-01T17:22:58.623Z,7.50
2022-11-01T17:25:30.424Z,7.10
2022-11-01T17:27:58.887Z,10.23
2022-11-01T17:30:27.070Z,9.95
2022-11-01T17:32:55.178Z,12.00
2022-11-01T17:35:26.671Z,7.13
2022-11-01T17:37:55.909Z,6.32
2022-11-01T17:40:28.302Z,5.15
2022-11-01T17:42:56.509Z,5.15
2022-11-01T17:45:25.046Z,8.55
2022-11-01T17:47:54.812Z,6.45
2022-11-01T17:50:23.288Z,6.40
2022-11-01T17:52:51.930Z,7.07
2022-11-01T17:55:20.043Z,23.30
2022-11-01T17:57:49.442Z,24.92
2022-11-01T18:00:17.738Z,26.02
2022-11-01T18:02:46.085Z,40.25
2022-11-01T18:05:14.146Z,38.97
2022-11-01T18:07:45.226Z,13.55
2022-11-01T18:10:33.469Z,12.88
2022-11-01T18:13:20.180Z,10.68
2022-11-01T18:16:13.197Z,7.15
2022-11-01T18:19:14.900Z,12.70
2022-11-01T18:22:20.762Z,5.57
2022-11-01T18:25:28.686Z,5.40
2022-11-01T18:28:01.339Z,7.90
2022-11-01T18:30:30.641Z,5.50
2022-11-01T18:33:05.292Z,8.52
2022-11-01T18:35:39.163Z,5.75
2022-11-01T18:38:37.338Z,9.63
2022-11-01T18:41:12.975Z,9.48
2022-11-01T18:43:42.021Z,17.13
2022-11-01T18:46:26.196Z,9.25
2022-11-01T18:49:01.089Z,8.10
2022-11-01T18:51:33.413Z,7.72
2022-11-01T18:54:11.103Z,7.13
2022-11-01T18:56:43.714Z,5.03
2022-11-01T18:59:30.044Z,6.60
2022-11-01T19:02:12.960Z,6.93
2022-11-01T19:04:43.633Z,5.78
2022-11-01T19:07:19.248Z,5.60
2022-11-01T19:09:54.531Z,8.57
2022-11-01T19:12:44.724Z,8.43
2022-11-01T19:15:28.017Z,10.25
2022-11-01T19:18:04.951Z,7.50
2022-11-01T19:20:50.000Z,8.70
2022-11-01T19:23:45.936Z,9.10
2022-11-01T19:26:20.277Z,8.30
2022-11-01T19:28:51.821Z,11.52
2022-11-01T19:31:40.055Z,7.10
2022-11-01T19:34:23.231Z,11.05
2022-11-01T19:36:52.998Z,18.60
2022-11-01T19:39:23.045Z,18.23
2022-11-01T19:41:56.719Z,32.08
2022-11-01T19:44:26.961Z,33.42
2022-11-01T19:47:20.149Z,35.85
2022-11-01T19:49:49.646Z,13.75
2022-11-01T19:52:38.337Z,10.65
2022-11-01T19:55:48.093Z,8.30
2022-11-01T19:58:22.776Z,12.82
2022-11-01T20:01:09.008Z,7.47
2022-11-01T20:03:48.248Z,10.40
2022-11-01T20:06:31.461Z,12.80
2022-11-01T20:09:12.008Z,8.90
2022-11-01T20:11:40.068Z,9.55
2022-11-01T20:14:08.181Z,10.45
2022-11-01T20:16:36.257Z,10.20
2022-11-01T20:19:04.341Z,14.70
2022-11-01T20:21:32.402Z,32.20
2022-11-01T20:24:01.607Z,30.63
2022-11-01T20:26:30.149Z,27.75
2022-11-01T20:28:58.470Z,21.70
2022-11-01T20:31:27.366Z,30.88
2022-11-01T20:33:55.473Z,23.42
2022-11-01T20:36:23.653Z,21.60
2022-11-01T20:38:51.756Z,17.85
2022-11-01T20:41:20.418Z,17.50
2022-11-01T20:43:48.739Z,21.88
2022-11-01T20:46:16.848Z,23.95
2022-11-01T20:48:47.693Z,21.33
2022-11-01T20:51:15.746Z,25.70
2022-11-01T20:53:43.858Z,31.20
2022-11-01T20:56:12.274Z,18.58
2022-11-01T20:58:40.704Z,31.13
2022-11-01T21:01:17.482Z,23.95
2022-11-01T21:03:46.151Z,14.55
2022-11-01T21:06:17.921Z,27.92
2022-11-01T21:08:49.756Z,21.35
2022-11-01T21:11:44.146Z,23.45
2022-11-01T21:14:20.591Z,9.38
2022-11-01T21:16:49.277Z,7.15
2022-11-01T21:19:23.213Z,5.65
2022-11-01T21:22:00.321Z,3.90
2022-11-01T21:24:33.058Z,5.28
2022-11-01T21:27:12.549Z,4.88
2022-11-01T21:29:47.585Z,6.88
2022-11-01T21:32:35.011Z,5.53
2022-11-01T21:35:39.068Z,7.78
2022-11-01T21:38:40.542Z,5.00
2022-11-01T21:41:32.146Z,6.15
2022-11-01T21:44:29.625Z,5.57
2022-11-01T21:47:09.466Z,3.67
2022-11-01T21:49:38.005Z,4.50
2022-11-01T21:54:43.531Z,4.30
2022-11-01T21:57:13.650Z,4.20
2022-11-01T21:59:43.082Z,9.88
2022-11-01T22:02:14.019Z,4.05
2022-11-01T22:04:42.339Z,5.55
2022-11-01T22:07:11.260Z,6.53
2022-11-01T22:09:39.464Z,3.70
2022-11-01T22:12:08.418Z,4.13
2022-11-01T22:14:37.551Z,3.35
2022-11-01T22:17:05.663Z,3.60
2022-11-01T22:19:33.741Z,4.40
2022-11-01T22:22:02.156Z,5.85
2022-11-01T22:24:31.102Z,1.92
2022-11-01T22:26:59.306Z,5.15
2022-11-01T22:29:27.363Z,3.35
2022-11-01T22:31:55.471Z,3.92
2022-11-01T22:34:23.527Z,6.72
2022-11-01T22:36:51.631Z,4.22
2022-11-01T22:39:23.567Z,3.70
2022-11-01T22:41:52.003Z,7.22
2022-11-01T22:44:30.646Z,6.72
2022-11-01T22:47:02.099Z,3.78
2022-11-01T22:49:37.376Z,2.78
2022-11-01T22:52:16.104Z,4.00
2022-11-01T22:54:48.268Z,5.35
2022-11-01T22:57:22.852Z,1.83
2022-11-01T23:00:27.781Z,5.55
2022-11-01T23:03:02.851Z,3.33
2022-11-01T23:05:31.386Z,3.00
2022-11-01T23:08:41.946Z,2.53
2022-11-01T23:11:45.307Z,4.88
2022-11-01T23:14:36.525Z,5.55
2022-11-01T23:17:23.451Z,3.72
2022-11-01T23:19:56.091Z,3.65
2022-11-01T23:22:30.203Z,2.28
2022-11-01T23:24:58.377Z,3.17
2022-11-01T23:27:29.587Z,3.30
2022-11-01T23:30:00.542Z,2.88
2022-11-01T23:32:30.690Z,2.80
2022-11-01T23:35:20.587Z,4.28
2022-11-01T23:37:51.669Z,2.97
2022-11-01T23:40:22.278Z,3.55
2022-11-01T23:42:50.955Z,2.80
2022-11-01T23:45:31.059Z,4.63
2022-11-01T23:48:01.066Z,6.07
2022-11-01T23:50:54.115Z,7.13
2022-11-01T23:53:35.517Z,2.80
2022-11-01T23:56:09.095Z,3.65
2022-11-01T23:58:38.370Z,4.00
